createdAt,value
2023-03-07T00:02:10.203Z,74.28
2023-03-07T00:07:15.358Z,74.36
2023-03-07T00:12:17.254Z,74.32
2023-03-07T00:17:19.070Z,74.44
2023-03-07T00:22:20.906Z,74.38
2023-03-07T00:27:22.710Z,74.36
2023-03-07T00:32:25.039Z,74.50
2023-03-07T00:37:27.202Z,74.58
2023-03-07T00:42:29.067Z,74.33
2023-03-07T00:47:30.966Z,74.67
2023-03-07T00:52:34.068Z,74.50
2023-03-07T00:57:36.687Z,74.41
2023-03-07T01:02:38.504Z,74.46
2023-03-07T01:07:40.316Z,74.52
2023-03-07T01:12:45.432Z,74.63
2023-03-07T01:17:47.433Z,74.57
2023-03-07T01:22:49.278Z,74.52
2023-03-07T01:27:55.908Z,74.40
2023-03-07T01:33:01.390Z,74.39
2023-03-07T01:38:03.886Z,74.55
2023-03-07T01:43:27.198Z,74.38
2023-03-07T01:48:35.575Z,74.26
2023-03-07T01:53:37.903Z,74.35
2023-03-07T01:58:41.592Z,74.15
2023-03-07T02:03:55.503Z,74.36
2023-03-07T02:09:00.800Z,74.10
2023-03-07T02:14:02.710Z,74.19
2023-03-07T02:19:16.208Z,74.31
2023-03-07T02:25:06.418Z,74.21
2023-03-07T02:30:09.564Z,74.13
2023-03-07T02:35:24.366Z,74.11
2023-03-07T02:40:32.649Z,73.98
2023-03-07T02:45:35.633Z,74.10
2023-03-07T02:50:37.714Z,73.84
2023-03-07T02:55:40.077Z,73.96
2023-03-07T03:00:43.670Z,73.89
2023-03-07T03:05:45.797Z,73.59
2023-03-07T03:10:54.076Z,73.34
2023-03-07T03:15:59.991Z,73.57
2023-03-07T03:21:08.932Z,73.66
2023-03-07T03:26:11.900Z,73.52
2023-03-07T03:31:15.587Z,73.30
2023-03-07T03:36:17.867Z,73.37
2023-03-07T03:41:32.339Z,73.34
2023-03-07T03:46:35.114Z,73.18
2023-03-07T03:51:37.455Z,73.10
2023-03-07T03:56:39.571Z,73.15
2023-03-07T04:01:42.110Z,73.18
2023-03-07T04:06:44.891Z,73.05
2023-03-07T04:11:47.616Z,73.19
2023-03-07T04:16:49.947Z,73.04
2023-03-07T04:21:52.061Z,72.98
2023-03-07T04:26:54.051Z,72.83
2023-03-07T04:31:57.011Z,72.86
2023-03-07T04:36:59.134Z,72.81
2023-03-07T04:42:01.065Z,73.02
2023-03-07T04:47:09.107Z,73.00
2023-03-07T04:52:12.040Z,72.92
2023-03-07T04:57:14.716Z,72.51
2023-03-07T05:02:17.841Z,72.46
2023-03-07T05:07:19.954Z,72.27
2023-03-07T05:12:23.511Z,72.12
2023-03-07T05:17:25.799Z,72.16
2023-03-07T05:22:27.965Z,72.15
2023-03-07T05:27:30.243Z,71.91
2023-03-07T05:32:34.522Z,71.59
2023-03-07T05:37:36.884Z,71.76
2023-03-07T05:42:39.632Z,71.61
2023-03-07T05:47:42.041Z,71.58
2023-03-07T05:52:46.147Z,71.52
2023-03-07T05:57:50.109Z,71.35
2023-03-07T06:02:53.129Z,71.34
2023-03-07T06:07:55.149Z,71.11
2023-03-07T06:12:57.355Z,70.98
2023-03-07T06:17:59.916Z,71.31
2023-03-07T06:23:01.995Z,71.13
2023-03-07T06:28:05.067Z,71.21
2023-03-07T06:33:08.170Z,70.98
2023-03-07T06:38:12.299Z,71.27
2023-03-07T06:43:14.700Z,71.49
2023-03-07T06:48:18.143Z,71.68
2023-03-07T06:53:21.278Z,71.80
2023-03-07T06:58:23.801Z,71.98
2023-03-07T07:08:57.886Z,72.20
2023-03-07T07:14:03.875Z,72.44
2023-03-07T07:19:05.842Z,72.71
2023-03-07T07:24:12.481Z,72.89
2023-03-07T07:29:15.959Z,73.10
2023-03-07T07:34:18.248Z,73.16
2023-03-07T07:39:21.993Z,73.25
2023-03-07T07:44:23.924Z,73.57
2023-03-07T07:49:32.921Z,73.69
2023-03-07T07:54:34.940Z,73.92
2023-03-07T07:59:37.195Z,74.13
2023-03-07T08:04:41.562Z,74.21
2023-03-07T08:09:43.458Z,74.48
2023-03-07T08:14:45.314Z,74.78
2023-03-07T08:19:47.226Z,74.90
2023-03-07T08:24:50.853Z,75.19
2023-03-07T08:29:52.893Z,75.15
2023-03-07T08:34:54.712Z,75.41
2023-03-07T08:39:56.425Z,75.61
2023-03-07T08:44:58.188Z,75.64
2023-03-07T08:50:00.182Z,75.63
2023-03-07T08:55:02.039Z,75.57
2023-03-07T09:00:06.806Z,75.39
2023-03-07T09:05:09.684Z,75.11
2023-03-07T09:10:12.222Z,74.38
2023-03-07T09:15:14.491Z,74.40
2023-03-07T09:20:17.229Z,74.15
2023-03-07T09:25:19.091Z,73.95
2023-03-07T09:30:22.808Z,73.76
2023-03-07T09:35:25.293Z,73.53
2023-03-07T09:40:28.153Z,73.60
2023-03-07T09:45:50.532Z,73.38
2023-03-07T09:51:13.070Z,73.12
2023-03-07T09:56:53.842Z,73.14
2023-03-07T10:02:32.086Z,72.98
2023-03-07T10:07:35.697Z,72.60
2023-03-07T10:12:46.152Z,72.26
2023-03-07T10:18:13.566Z,72.06
2023-03-07T10:23:15.513Z,71.95
2023-03-07T10:28:28.395Z,72.11
2023-03-07T10:33:31.044Z,72.12
2023-03-07T10:39:01.932Z,71.77
2023-03-07T10:44:03.901Z,71.63
2023-03-07T10:49:14.874Z,71.66
2023-03-07T10:54:24.509Z,71.37
2023-03-07T10:59:26.481Z,70.70
2023-03-07T11:04:30.573Z,70.62
2023-03-07T11:09:35.079Z,70.22
2023-03-07T11:14:49.053Z,69.94
2023-03-07T11:19:55.564Z,69.02
2023-03-07T11:25:20.968Z,69.03
2023-03-07T11:30:46.919Z,67.61
2023-03-07T11:36:02.601Z,66.30
2023-03-07T11:41:20.762Z,66.30
2023-03-07T11:46:33.616Z,66.11
2023-03-07T11:51:59.328Z,66.50
2023-03-07T11:57:17.816Z,66.54
2023-03-07T12:02:44.322Z,66.22
2023-03-07T12:08:08.285Z,65.83
2023-03-07T12:13:36.217Z,65.38
2023-03-07T12:18:40.631Z,64.73
2023-03-07T12:23:53.007Z,64.89
2023-03-07T12:29:10.705Z,63.97
2023-03-07T12:34:33.803Z,63.27
2023-03-07T12:39:49.534Z,63.19
2023-03-07T12:44:59.783Z,63.32
2023-03-07T12:50:58.203Z,63.16
2023-03-07T12:56:11.947Z,63.07
2023-03-07T13:01:22.956Z,62.69
2023-03-07T13:06:25.851Z,61.86
2023-03-07T13:11:31.406Z,61.45
2023-03-07T13:16:38.125Z,61.55
2023-03-07T13:21:40.025Z,61.15
2023-03-07T13:26:42.552Z,61.41
2023-03-07T13:31:44.833Z,61.15
2023-03-07T13:36:47.049Z,60.68
2023-03-07T13:41:50.715Z,60.68
2023-03-07T13:46:55.908Z,60.14
2023-03-07T13:52:24.498Z,60.20
2023-03-07T13:57:30.934Z,60.38
2023-03-07T14:02:35.067Z,60.24
2023-03-07T14:07:43.236Z,60.30
2023-03-07T14:13:15.453Z,59.91
2023-03-07T14:18:44.750Z,59.77
2023-03-07T14:24:15.635Z,59.68
2023-03-07T14:29:22.254Z,59.91
2023-03-07T14:34:30.239Z,60.22
2023-03-07T14:39:43.147Z,60.09
2023-03-07T14:45:03.649Z,60.71
2023-03-07T14:50:19.225Z,60.88
2023-03-07T14:55:24.478Z,61.01
2023-03-07T15:00:32.834Z,61.50
2023-03-07T15:05:49.930Z,61.46
2023-03-07T15:11:13.437Z,61.73
2023-03-07T15:16:47.312Z,60.85
2023-03-07T15:22:00.368Z,60.47
2023-03-07T15:27:04.583Z,60.57
2023-03-07T15:32:07.785Z,60.40
2023-03-07T15:37:27.814Z,60.59
2023-03-07T15:42:30.282Z,60.88
2023-03-07T15:47:33.075Z,60.91
2023-03-07T15:52:38.425Z,61.00
2023-03-07T15:57:51.758Z,61.41
2023-03-07T16:02:53.976Z,61.45
2023-03-07T16:07:57.521Z,61.50
2023-03-07T16:13:01.801Z,61.49
2023-03-07T16:18:06.967Z,61.61
2023-03-07T16:23:13.119Z,61.49
2023-03-07T16:28:15.029Z,61.48
2023-03-07T16:33:16.953Z,61.45
2023-03-07T16:38:18.749Z,61.61
2023-03-07T16:43:29.820Z,61.28
2023-03-07T16:48:32.412Z,61.48
2023-03-07T16:53:34.314Z,61.21
2023-03-07T16:58:36.816Z,61.09
2023-03-07T17:03:39.811Z,60.98
2023-03-07T17:08:41.824Z,60.90
2023-03-07T17:13:43.841Z,61.00
2023-03-07T17:18:46.312Z,60.30
2023-03-07T17:23:49.342Z,60.20
2023-03-07T17:28:53.519Z,60.36
2023-03-07T17:33:56.652Z,60.80
2023-03-07T17:38:58.533Z,60.69
2023-03-07T17:44:00.353Z,61.44
2023-03-07T17:49:02.373Z,62.44
2023-03-07T17:54:08.295Z,63.23
2023-03-07T17:59:10.129Z,63.71
2023-03-07T18:04:12.347Z,63.81
2023-03-07T18:09:15.453Z,64.11
2023-03-07T18:14:17.645Z,64.66
2023-03-07T18:19:26.332Z,64.93
2023-03-07T18:24:32.611Z,65.26
2023-03-07T18:29:35.204Z,65.44
2023-03-07T18:34:37.617Z,65.27
2023-03-07T18:39:39.595Z,65.40
2023-03-07T18:44:42.166Z,65.51
2023-03-07T18:49:44.183Z,65.67
2023-03-07T18:54:48.395Z,65.78
2023-03-07T18:59:51.202Z,66.04
2023-03-07T19:04:54.126Z,66.31
2023-03-07T19:10:02.720Z,66.00
2023-03-07T19:15:05.019Z,66.19
2023-03-07T19:20:07.662Z,66.32
2023-03-07T19:25:10.316Z,66.43
2023-03-07T19:30:12.816Z,66.78
2023-03-07T19:35:14.781Z,66.63
2023-03-07T19:40:16.621Z,66.67
2023-03-07T19:45:19.015Z,66.89
2023-03-07T19:50:21.124Z,66.77
2023-03-07T19:55:24.716Z,66.87
2023-03-07T20:00:26.657Z,67.23
2023-03-07T20:05:28.543Z,67.06
2023-03-07T20:10:30.449Z,67.17
2023-03-07T20:15:33.383Z,67.32
2023-03-07T20:20:36.153Z,67.43
2023-03-07T20:25:38.049Z,67.39
2023-03-07T20:30:40.938Z,67.58
2023-03-07T20:35:42.830Z,67.69
2023-03-07T20:40:44.686Z,67.59
2023-03-07T20:45:47.169Z,67.71
2023-03-07T20:50:48.981Z,67.64
2023-03-07T20:55:51.986Z,67.89
2023-03-07T21:00:54.317Z,67.78
2023-03-07T21:06:01.225Z,67.93
2023-03-07T21:11:10.929Z,67.93
2023-03-07T21:16:18.511Z,67.74
2023-03-07T21:21:22.457Z,68.02
2023-03-07T21:26:29.902Z,68.09
2023-03-07T21:31:34.349Z,67.86
2023-03-07T21:36:36.202Z,68.17
2023-03-07T21:41:40.256Z,68.37
2023-03-07T21:46:42.632Z,68.16
2023-03-07T21:51:55.224Z,68.33
2023-03-07T21:57:01.269Z,68.42
2023-03-07T22:02:03.074Z,68.60
2023-03-07T22:07:04.991Z,68.55
2023-03-07T22:12:07.452Z,68.47
2023-03-07T22:17:09.298Z,68.58
2023-03-07T22:22:11.243Z,68.64
2023-03-07T22:27:13.065Z,68.78
2023-03-07T22:32:14.887Z,69.00
2023-03-07T22:37:17.468Z,68.74
2023-03-07T22:42:19.647Z,68.98
2023-03-07T22:47:21.502Z,68.97
2023-03-07T22:52:23.364Z,68.93
2023-03-07T22:57:25.302Z,69.03
2023-03-07T23:02:28.321Z,69.25
2023-03-07T23:07:30.117Z,69.28
2023-03-07T23:12:31.969Z,69.44
2023-03-07T23:17:35.225Z,69.40
2023-03-07T23:22:38.559Z,69.40
2023-03-07T23:27:40.623Z,69.71
2023-03-07T23:32:42.804Z,69.48
2023-03-07T23:37:44.770Z,69.79
2023-03-07T23:42:46.865Z,70.03
2023-03-07T23:47:48.942Z,69.64
2023-03-07T23:52:50.885Z,69.97
2023-03-07T23:57:52.799Z,70.15
